Kilgore, Kentucky
Current Conditions -  °F | °C
As of 11:51 AM on Saturday 20 Dec 2014 (Local Time) from KHTS Reporting Station
Broken Clouds Broken Clouds  
Wind Chill: 33°   Ceiling: 4300
Heat Index: 33°   Visibility: 10mi
Dew Point: 24°   Wind: 3mph
Humidity: 70%   Direction: 70°ENE
Pressure: 30.25"   Gusts: NA
Location:  38.2878°N, 82.7547°W
Report Text: KHTS 201651Z 07003KT 10SM BKN043 BKN085 01/M04 A3025 RMK AO2 SLP253 T00061044
Loading
Personal Weather Stations






























Interactive Weather Map New forecast layout! Learn more

10-Day Weather Forecast

Advertisements
Track Severe Weather on mobile